Terminal Aerodrome Forecast
Issued by NWS

Home | Current Version | Previous Version | Text Only | Print | Product List | Glossary On
Versions: 1 2 3 4 5 6 7 8 9 10 11 12 13 14 15 16 17 18 19
000
FTUS44 KLIX 012322
TAFMCB
TAF
KMCB 012322Z 0200/0224 18008KT P6SM SCT060 BKN250
     FM020800 16005KT 1 1/2SM BR SCT005 BKN013
      TEMPO 0210/0213 1/2SM FG BKN005
     FM021400 17009KT P6SM BKN018
     FM021700 18012KT P6SM BKN040=

USA.gov is the U.S. government's official web portal to all federal, state and local government web resources and services.